createdAt,value
2019-02-27T00:01:07.202Z,5.33
2019-02-27T00:02:22.709Z,5.62
2019-02-27T00:03:35.450Z,5.12
2019-02-27T00:04:48.666Z,4.45
2019-02-27T00:06:01.946Z,4.83
2019-02-27T00:07:15.188Z,4.97
2019-02-27T00:08:28.428Z,4.62
2019-02-27T00:09:41.654Z,4.50
2019-02-27T00:10:54.873Z,5.45
2019-02-27T00:12:08.082Z,4.97
2019-02-27T00:13:24.724Z,5.20
2019-02-27T00:14:36.249Z,4.70
2019-02-27T00:15:50.874Z,5.28
2019-02-27T00:17:05.309Z,3.83
2019-02-27T00:18:18.493Z,5.05
2019-02-27T00:19:31.986Z,4.60
2019-02-27T00:20:45.209Z,4.35
2019-02-27T00:21:58.425Z,4.28
2019-02-27T00:23:11.659Z,4.75
2019-02-27T00:24:29.622Z,3.92
2019-02-27T00:25:39.817Z,4.87
2019-02-27T00:26:53.501Z,4.90
2019-02-27T00:28:06.722Z,4.55
2019-02-27T00:29:19.949Z,4.42
2019-02-27T00:30:33.165Z,5.03
2019-02-27T00:31:46.380Z,4.20
2019-02-27T00:32:59.601Z,4.00
2019-02-27T00:34:12.834Z,3.72
2019-02-27T00:35:26.054Z,4.15
2019-02-27T00:36:44.894Z,4.62
2019-02-27T00:37:55.837Z,4.37
2019-02-27T00:39:09.305Z,5.20
2019-02-27T00:40:22.553Z,4.42
2019-02-27T00:41:35.782Z,4.30
2019-02-27T00:42:48.997Z,4.90
2019-02-27T00:44:02.262Z,4.87
2019-02-27T00:45:15.477Z,4.25
2019-02-27T00:46:28.701Z,4.60
2019-02-27T00:47:41.921Z,4.30
2019-02-27T00:48:59.059Z,4.50
2019-02-27T00:50:10.271Z,4.03
2019-02-27T00:51:23.486Z,4.45
2019-02-27T00:52:36.712Z,4.72
2019-02-27T00:53:49.929Z,4.12
2019-02-27T00:55:05.203Z,4.45
2019-02-27T00:56:18.584Z,4.42
2019-02-27T00:57:31.812Z,4.72
2019-02-27T00:58:45.025Z,4.78
2019-02-27T00:59:58.261Z,4.75
2019-02-27T01:01:12.588Z,4.30
2019-02-27T01:02:26.579Z,4.62
2019-02-27T01:03:39.803Z,4.72
2019-02-27T01:04:53.029Z,4.45
2019-02-27T01:06:06.255Z,4.65
2019-02-27T01:07:20.703Z,5.00
2019-02-27T01:08:34.644Z,5.08
2019-02-27T01:09:47.853Z,5.03
2019-02-27T01:11:01.322Z,4.58
2019-02-27T01:12:14.542Z,3.95
2019-02-27T01:13:28.930Z,4.28
2019-02-27T01:14:42.754Z,4.87
2019-02-27T01:15:55.981Z,3.92
2019-02-27T01:17:09.193Z,4.17
2019-02-27T01:18:22.465Z,4.67
2019-02-27T01:19:39.258Z,4.70
2019-02-27T01:20:52.261Z,4.05
2019-02-27T01:22:05.494Z,4.20
2019-02-27T01:23:18.716Z,4.83
2019-02-27T01:24:31.936Z,4.05
2019-02-27T01:25:45.152Z,4.08
2019-02-27T01:26:58.379Z,4.28
2019-02-27T01:28:11.672Z,4.20
2019-02-27T01:29:24.891Z,4.42
2019-02-27T01:30:38.106Z,4.67
2019-02-27T01:31:51.354Z,4.35
2019-02-27T01:33:04.867Z,4.10
2019-02-27T01:34:18.190Z,4.30
2019-02-27T01:35:31.421Z,4.30
2019-02-27T01:36:44.635Z,3.87
2019-02-27T01:37:57.858Z,3.95
2019-02-27T01:39:11.344Z,4.28
2019-02-27T01:40:25.269Z,4.10
2019-02-27T01:41:38.487Z,4.40
2019-02-27T01:42:51.713Z,4.22
2019-02-27T01:44:04.937Z,4.20
2019-02-27T01:45:20.613Z,4.12
2019-02-27T01:46:33.098Z,4.55
2019-02-27T01:47:46.309Z,3.45
2019-02-27T01:48:59.545Z,3.67
2019-02-27T01:50:24.870Z,3.87
2019-02-27T01:51:38.093Z,4.33
2019-02-27T01:52:51.313Z,4.70
2019-02-27T01:54:04.541Z,3.87
2019-02-27T01:55:21.812Z,4.35
2019-02-27T01:56:32.717Z,4.25
2019-02-27T01:57:45.931Z,3.52
2019-02-27T01:58:59.166Z,4.65
2019-02-27T02:00:12.384Z,3.85
2019-02-27T02:01:29.957Z,3.72
2019-02-27T02:02:40.612Z,3.60
2019-02-27T02:03:53.866Z,3.95
2019-02-27T02:05:07.077Z,3.30
2019-02-27T02:06:20.307Z,3.42
2019-02-27T02:07:33.525Z,3.72
2019-02-27T02:08:48.204Z,3.45
2019-02-27T02:10:01.697Z,4.05
2019-02-27T02:11:14.912Z,3.58
2019-02-27T02:12:28.174Z,3.85
2019-02-27T02:13:59.517Z,3.72
2019-02-27T02:15:21.581Z,3.72
2019-02-27T02:16:40.606Z,3.42
2019-02-27T02:18:16.228Z,3.58
2019-02-27T02:19:54.184Z,3.27
2019-02-27T02:21:19.853Z,3.72
2019-02-27T02:22:36.337Z,3.65
2019-02-27T02:24:14.911Z,3.35
2019-02-27T02:25:34.044Z,2.95
2019-02-27T02:27:01.681Z,3.67
2019-02-27T02:28:32.842Z,3.33
2019-02-27T02:29:52.983Z,3.70
2019-02-27T02:31:10.255Z,3.98
2019-02-27T02:32:32.315Z,3.30
2019-02-27T02:34:09.466Z,3.35
2019-02-27T02:35:49.614Z,3.42
2019-02-27T02:37:16.302Z,2.95
2019-02-27T02:38:55.346Z,2.92
2019-02-27T02:40:20.910Z,2.60
2019-02-27T02:41:47.939Z,3.02
2019-02-27T02:43:41.521Z,3.35
2019-02-27T02:45:13.713Z,2.70
2019-02-27T02:46:49.453Z,3.12
2019-02-27T02:48:14.390Z,2.95
2019-02-27T02:49:51.637Z,2.83
2019-02-27T02:51:29.081Z,3.00
2019-02-27T02:52:53.295Z,2.50
2019-02-27T02:54:38.185Z,3.20
2019-02-27T02:56:09.531Z,2.90
2019-02-27T02:57:36.267Z,2.92
2019-02-27T02:59:26.024Z,2.47
2019-02-27T03:00:51.478Z,3.40
2019-02-27T03:02:16.516Z,2.90
2019-02-27T03:03:37.004Z,2.25
2019-02-27T03:05:13.109Z,2.85
2019-02-27T03:06:35.099Z,2.58
2019-02-27T03:08:06.895Z,3.00
2019-02-27T03:09:23.375Z,2.67
2019-02-27T03:10:50.503Z,2.92
2019-02-27T03:12:12.833Z,2.90
2019-02-27T03:13:31.887Z,2.80
2019-02-27T03:15:03.009Z,3.02
2019-02-27T03:16:31.354Z,2.70
2019-02-27T03:17:53.763Z,3.12
2019-02-27T03:19:33.878Z,3.02
2019-02-27T03:21:13.723Z,3.15
2019-02-27T03:22:49.956Z,3.33
2019-02-27T03:24:06.432Z,2.90
2019-02-27T03:25:40.729Z,3.30
2019-02-27T03:27:10.934Z,3.05
2019-02-27T03:28:33.001Z,2.87
2019-02-27T03:30:15.095Z,2.70
2019-02-27T03:33:23.200Z,3.10
2019-02-27T03:34:50.432Z,3.15
2019-02-27T03:36:15.888Z,3.20
2019-02-27T03:37:38.133Z,3.27
2019-02-27T03:39:03.266Z,3.30
2019-02-27T03:40:22.312Z,3.60
2019-02-27T03:41:41.597Z,3.10
2019-02-27T03:43:13.045Z,3.22
2019-02-27T03:44:34.826Z,2.72
2019-02-27T03:46:09.274Z,3.00
2019-02-27T03:47:52.176Z,3.15
2019-02-27T03:49:23.777Z,3.25
2019-02-27T03:50:52.016Z,3.08
2019-02-27T03:52:36.319Z,2.87
2019-02-27T03:53:57.194Z,3.30
2019-02-27T03:55:22.106Z,2.60
2019-02-27T03:56:43.880Z,3.62
2019-02-27T03:58:11.550Z,3.25
2019-02-27T03:59:42.076Z,3.35
2019-02-27T04:01:14.413Z,2.85
2019-02-27T04:02:42.848Z,3.45
2019-02-27T04:04:14.267Z,3.33
2019-02-27T04:05:30.813Z,3.10
2019-02-27T04:07:07.990Z,3.15
2019-02-27T04:08:43.585Z,3.55
2019-02-27T04:09:54.882Z,3.27
2019-02-27T04:11:06.802Z,2.95
2019-02-27T04:12:20.137Z,3.25
2019-02-27T04:13:33.610Z,3.90
2019-02-27T04:14:47.062Z,3.87
2019-02-27T04:16:00.285Z,2.90
2019-02-27T04:17:14.244Z,3.87
2019-02-27T04:18:28.364Z,3.27
2019-02-27T04:19:41.539Z,3.00
2019-02-27T04:20:54.755Z,3.35
2019-02-27T04:22:07.974Z,2.90
2019-02-27T04:23:21.438Z,3.05
2019-02-27T04:24:34.664Z,3.50
2019-02-27T04:25:47.889Z,4.20
2019-02-27T04:27:01.109Z,3.05
2019-02-27T04:28:14.388Z,3.15
2019-02-27T04:29:28.361Z,2.92
2019-02-27T04:30:41.577Z,3.60
2019-02-27T04:31:54.806Z,3.33
2019-02-27T04:33:08.809Z,3.37
2019-02-27T04:34:22.033Z,3.60
2019-02-27T04:35:39.259Z,3.77
2019-02-27T04:36:50.189Z,3.50
2019-02-27T04:38:04.135Z,2.85
2019-02-27T04:39:17.353Z,3.55
2019-02-27T04:40:30.578Z,3.25
2019-02-27T04:41:44.490Z,3.42
2019-02-27T04:42:59.265Z,3.22
2019-02-27T04:44:12.649Z,3.30
2019-02-27T04:45:25.875Z,3.75
2019-02-27T04:46:39.080Z,3.30
2019-02-27T04:47:52.301Z,3.58
2019-02-27T04:49:05.528Z,3.85
2019-02-27T04:50:20.621Z,3.75
2019-02-27T04:51:33.847Z,3.47
2019-02-27T04:52:47.063Z,3.20
2019-02-27T04:54:00.297Z,3.87
2019-02-27T04:55:15.624Z,3.47
2019-02-27T04:56:28.485Z,2.90
2019-02-27T04:57:45.223Z,3.42
2019-02-27T04:58:58.440Z,3.22
2019-02-27T05:00:11.672Z,3.47
2019-02-27T05:01:24.906Z,3.30
2019-02-27T05:02:38.116Z,3.22
2019-02-27T05:03:51.344Z,3.72
2019-02-27T05:05:08.570Z,3.42
2019-02-27T05:06:21.378Z,3.15
2019-02-27T05:07:34.604Z,3.75
2019-02-27T05:08:47.859Z,2.87
2019-02-27T05:10:01.140Z,3.27
2019-02-27T05:11:14.866Z,2.92
2019-02-27T05:12:28.191Z,3.60
2019-02-27T05:13:41.410Z,3.55
2019-02-27T05:14:54.705Z,3.37
2019-02-27T05:16:07.946Z,2.80
2019-02-27T05:17:21.946Z,3.67
2019-02-27T05:18:35.272Z,3.15
2019-02-27T05:19:48.490Z,3.25
2019-02-27T05:21:01.717Z,3.75
2019-02-27T05:22:14.945Z,2.90
2019-02-27T05:23:28.175Z,3.83
2019-02-27T05:24:41.574Z,3.02
2019-02-27T05:25:54.787Z,3.83
2019-02-27T05:27:15.312Z,3.40
2019-02-27T05:30:14.608Z,3.47
2019-02-27T05:31:27.851Z,3.45
2019-02-27T05:32:41.063Z,4.10
2019-02-27T05:33:58.771Z,3.37
2019-02-27T05:35:13.593Z,4.35
2019-02-27T05:36:29.010Z,3.92
2019-02-27T05:37:41.758Z,4.20
2019-02-27T05:38:55.001Z,3.52
2019-02-27T05:40:09.759Z,3.37
2019-02-27T05:41:22.993Z,3.80
2019-02-27T05:42:38.809Z,4.05
2019-02-27T05:43:51.159Z,3.70
2019-02-27T05:45:06.305Z,3.90
2019-02-27T05:46:19.531Z,3.33
2019-02-27T05:47:32.755Z,3.65
2019-02-27T05:48:45.974Z,3.05
2019-02-27T05:50:00.566Z,4.08
2019-02-27T05:51:14.125Z,3.60
2019-02-27T05:52:27.352Z,3.45
2019-02-27T05:53:40.578Z,3.83
2019-02-27T05:54:53.801Z,3.35
2019-02-27T05:56:07.210Z,3.20
2019-02-27T05:57:21.108Z,3.42
2019-02-27T05:58:35.669Z,3.52
2019-02-27T05:59:48.881Z,3.77
2019-02-27T06:01:04.888Z,3.95
2019-02-27T06:02:17.049Z,3.55
2019-02-27T06:03:31.398Z,3.45
2019-02-27T06:04:44.613Z,3.42
2019-02-27T06:05:59.181Z,3.83
2019-02-27T06:07:12.409Z,3.95
2019-02-27T06:08:25.628Z,3.85
2019-02-27T06:09:38.847Z,3.70
2019-02-27T06:10:55.161Z,3.90
2019-02-27T06:12:07.623Z,4.60
2019-02-27T06:13:21.947Z,4.97
2019-02-27T06:14:35.178Z,4.45
2019-02-27T06:15:49.198Z,4.17
2019-02-27T06:17:02.734Z,4.17
2019-02-27T06:18:15.953Z,4.37
2019-02-27T06:19:30.612Z,3.35
2019-02-27T06:20:44.127Z,3.30
2019-02-27T06:21:57.346Z,3.75
2019-02-27T06:23:10.570Z,4.05
2019-02-27T06:24:23.809Z,4.30
2019-02-27T06:25:37.044Z,3.87
2019-02-27T06:26:50.486Z,3.98
2019-02-27T06:28:03.788Z,4.03
2019-02-27T06:29:17.016Z,6.55
2019-02-27T06:30:31.376Z,6.15
2019-02-27T06:31:44.752Z,6.58
2019-02-27T06:32:57.983Z,6.97
2019-02-27T06:34:11.442Z,4.70
2019-02-27T06:35:24.676Z,3.80
2019-02-27T06:36:41.955Z,3.80
2019-02-27T06:37:52.832Z,3.90
2019-02-27T06:39:06.455Z,3.95
2019-02-27T06:40:22.118Z,3.87
2019-02-27T06:41:35.341Z,4.75
2019-02-27T06:42:51.326Z,3.80
2019-02-27T06:44:04.250Z,4.12
2019-02-27T06:45:18.011Z,4.17
2019-02-27T06:46:31.296Z,4.03
2019-02-27T06:47:44.512Z,4.47
2019-02-27T06:48:57.732Z,4.60
2019-02-27T06:50:12.893Z,4.25
2019-02-27T06:51:26.130Z,4.53
2019-02-27T06:52:42.067Z,4.62
2019-02-27T06:53:54.288Z,3.20
2019-02-27T06:55:09.466Z,3.70
2019-02-27T06:56:22.941Z,3.30
2019-02-27T06:57:36.172Z,3.37
2019-02-27T06:58:50.077Z,3.87
2019-02-27T07:00:07.101Z,3.60
2019-02-27T07:01:22.190Z,3.80
2019-02-27T07:02:35.422Z,3.30
2019-02-27T07:03:49.631Z,3.55
2019-02-27T07:05:02.877Z,3.50
2019-02-27T07:06:16.092Z,4.40
2019-02-27T07:07:31.309Z,3.37
2019-02-27T07:08:44.272Z,3.92
2019-02-27T07:09:57.487Z,3.55
2019-02-27T07:11:11.268Z,3.22
2019-02-27T07:12:24.613Z,3.75
2019-02-27T07:13:37.829Z,3.30
2019-02-27T07:14:51.045Z,3.67
2019-02-27T07:16:04.546Z,3.75
2019-02-27T07:17:40.565Z,3.92
2019-02-27T07:18:53.781Z,4.03
2019-02-27T07:20:09.445Z,4.45
2019-02-27T07:21:22.660Z,4.70
2019-02-27T07:22:36.143Z,5.12
2019-02-27T07:23:49.362Z,6.53
2019-02-27T07:25:06.377Z,4.70
2019-02-27T07:26:17.761Z,4.17
2019-02-27T07:27:31.277Z,4.70
2019-02-27T07:28:45.193Z,4.15
2019-02-27T07:29:58.419Z,4.35
2019-02-27T07:31:12.474Z,3.50
2019-02-27T07:32:26.545Z,3.55
2019-02-27T07:33:40.667Z,4.33
2019-02-27T07:34:55.112Z,3.72
2019-02-27T07:36:08.339Z,3.20
2019-02-27T07:37:21.558Z,3.67
2019-02-27T07:38:34.796Z,4.15
2019-02-27T07:39:48.062Z,3.70
2019-02-27T07:41:01.278Z,2.95
2019-02-27T07:42:16.777Z,3.42
2019-02-27T07:43:30.009Z,3.30
2019-02-27T07:44:43.246Z,3.30
2019-02-27T07:45:56.465Z,3.17
2019-02-27T07:47:09.684Z,4.05
2019-02-27T07:48:22.909Z,3.37
2019-02-27T07:49:36.133Z,3.17
2019-02-27T07:50:49.388Z,3.22
2019-02-27T07:52:02.648Z,3.40
2019-02-27T07:53:17.653Z,4.08
2019-02-27T07:54:31.066Z,3.90
2019-02-27T07:55:44.280Z,3.92
2019-02-27T07:56:57.497Z,4.00
2019-02-27T07:58:10.728Z,3.72
2019-02-27T07:59:23.969Z,3.95
2019-02-27T08:00:37.202Z,3.37
2019-02-27T08:01:50.430Z,3.17
2019-02-27T08:03:03.645Z,2.98
2019-02-27T08:04:19.187Z,3.42
2019-02-27T08:05:31.882Z,3.60
2019-02-27T08:06:45.107Z,3.87
2019-02-27T08:07:58.320Z,3.77
2019-02-27T08:09:11.543Z,3.42
2019-02-27T08:10:25.811Z,3.72
2019-02-27T08:11:40.540Z,3.08
2019-02-27T08:12:56.485Z,3.60
2019-02-27T08:14:08.692Z,3.52
2019-02-27T08:15:21.918Z,3.87
2019-02-27T08:16:36.938Z,4.22
2019-02-27T08:17:57.483Z,3.67
2019-02-27T08:19:08.914Z,3.55
2019-02-27T08:20:22.899Z,4.42
2019-02-27T08:21:36.129Z,3.83
2019-02-27T08:22:49.766Z,4.83
2019-02-27T08:24:07.454Z,4.37
2019-02-27T08:25:20.084Z,4.30
2019-02-27T08:26:33.293Z,4.10
2019-02-27T08:27:46.539Z,4.80
2019-02-27T08:28:59.761Z,4.00
2019-02-27T08:30:27.910Z,3.85
2019-02-27T08:31:41.137Z,4.75
2019-02-27T08:32:54.375Z,5.33
2019-02-27T08:34:07.580Z,4.75
2019-02-27T08:35:21.052Z,4.53
2019-02-27T08:36:34.265Z,4.53
2019-02-27T08:37:47.722Z,4.92
2019-02-27T08:39:00.946Z,5.05
2019-02-27T08:40:14.714Z,5.33
2019-02-27T08:41:29.207Z,5.87
2019-02-27T08:42:43.595Z,5.50
2019-02-27T08:43:56.848Z,5.62
2019-02-27T08:45:19.988Z,5.50
2019-02-27T08:46:34.039Z,5.58
2019-02-27T08:47:49.235Z,5.60
2019-02-27T08:49:02.453Z,5.25
2019-02-27T08:50:24.018Z,5.78
2019-02-27T08:52:51.444Z,5.95
2019-02-27T08:54:04.730Z,5.72
2019-02-27T08:55:22.047Z,6.12
2019-02-27T08:56:33.668Z,5.65
2019-02-27T08:57:46.900Z,6.10
2019-02-27T08:59:00.132Z,5.97
2019-02-27T09:00:24.620Z,6.12
2019-02-27T09:01:37.956Z,5.83
2019-02-27T09:02:51.170Z,6.08
2019-02-27T09:04:06.112Z,6.67
2019-02-27T09:05:20.787Z,6.35
2019-02-27T09:06:34.203Z,6.65
2019-02-27T09:07:47.429Z,6.72
2019-02-27T09:09:00.652Z,6.83
2019-02-27T09:10:16.573Z,6.28
2019-02-27T09:11:29.818Z,6.90
2019-02-27T09:12:45.358Z,8.23
2019-02-27T09:13:58.718Z,7.53
2019-02-27T09:15:12.487Z,7.60
2019-02-27T09:16:26.123Z,8.15
2019-02-27T09:17:40.155Z,7.28
2019-02-27T09:18:53.385Z,7.97
2019-02-27T09:20:19.673Z,8.25
2019-02-27T09:21:32.462Z,6.58
2019-02-27T09:22:45.692Z,7.45
2019-02-27T09:23:58.926Z,7.33
2019-02-27T09:25:13.199Z,7.83
2019-02-27T09:26:26.430Z,7.78
2019-02-27T09:27:40.790Z,7.75
2019-02-27T09:28:54.102Z,8.23
2019-02-27T09:30:17.462Z,8.25
2019-02-27T09:31:30.697Z,7.95
2019-02-27T09:32:46.021Z,7.53
2019-02-27T09:33:59.333Z,7.85
2019-02-27T09:35:13.089Z,7.55
2019-02-27T09:36:26.333Z,7.97
2019-02-27T09:37:39.566Z,8.20
2019-02-27T09:38:57.274Z,8.05
2019-02-27T09:40:11.047Z,8.08
2019-02-27T09:41:24.285Z,8.80
2019-02-27T09:42:37.516Z,9.30
2019-02-27T09:43:50.749Z,8.73
2019-02-27T09:45:04.525Z,8.85
2019-02-27T09:46:19.604Z,8.65
2019-02-27T09:47:32.727Z,7.80
2019-02-27T09:48:45.945Z,8.10
2019-02-27T09:49:59.188Z,9.15
2019-02-27T09:51:12.419Z,9.73
2019-02-27T09:52:27.814Z,9.83
2019-02-27T09:53:40.590Z,10.15
2019-02-27T09:54:54.847Z,11.10
2019-02-27T09:56:08.649Z,9.15
2019-02-27T09:57:21.869Z,8.23
2019-02-27T09:58:35.101Z,9.30
2019-02-27T09:59:48.349Z,8.60
2019-02-27T10:01:07.427Z,8.90
2019-02-27T10:02:20.658Z,8.70
2019-02-27T10:03:33.881Z,8.95
2019-02-27T10:04:47.114Z,8.40
2019-02-27T10:06:01.541Z,7.87
2019-02-27T10:07:17.102Z,8.38
2019-02-27T10:08:29.722Z,8.38
2019-02-27T10:09:42.941Z,7.92
2019-02-27T10:10:56.184Z,8.75
2019-02-27T10:12:09.476Z,8.50
2019-02-27T10:13:23.942Z,7.95
2019-02-27T10:14:37.168Z,7.72
2019-02-27T10:15:50.401Z,8.53
2019-02-27T10:17:03.637Z,7.90
2019-02-27T10:18:18.959Z,8.45
2019-02-27T10:19:31.804Z,8.28
2019-02-27T10:20:45.046Z,8.23
2019-02-27T10:21:58.274Z,7.80
2019-02-27T10:23:11.496Z,6.47
2019-02-27T10:24:24.733Z,7.03
2019-02-27T10:25:37.964Z,5.90
2019-02-27T10:26:53.585Z,7.28
2019-02-27T10:28:06.154Z,8.78
2019-02-27T10:29:19.391Z,8.58
2019-02-27T10:30:32.633Z,8.03
2019-02-27T10:31:45.857Z,8.65
2019-02-27T10:32:59.094Z,7.90
2019-02-27T10:34:14.556Z,8.70
2019-02-27T10:35:29.392Z,8.20
2019-02-27T10:36:43.414Z,7.40
2019-02-27T10:37:56.798Z,7.47
2019-02-27T10:39:10.091Z,7.33
2019-02-27T10:40:24.649Z,8.58
2019-02-27T10:41:39.736Z,7.65
2019-02-27T10:42:52.965Z,7.55
2019-02-27T10:44:06.194Z,6.92
2019-02-27T10:45:19.410Z,6.78
2019-02-27T10:46:32.655Z,6.97
2019-02-27T10:47:46.861Z,7.65
2019-02-27T10:49:00.088Z,7.30
2019-02-27T10:50:13.855Z,10.05
2019-02-27T10:51:27.104Z,7.80
2019-02-27T10:52:40.343Z,10.00
2019-02-27T10:53:53.562Z,12.63
2019-02-27T10:55:11.335Z,9.35
2019-02-27T10:56:24.884Z,9.10
2019-02-27T10:57:38.576Z,12.60
2019-02-27T10:58:51.924Z,12.20
2019-02-27T11:00:08.413Z,16.50
2019-02-27T11:01:21.657Z,10.28
2019-02-27T11:02:34.892Z,12.80
2019-02-27T11:03:48.133Z,8.40
2019-02-27T11:05:01.361Z,8.45
2019-02-27T11:06:14.598Z,8.43
2019-02-27T11:07:27.849Z,8.28
2019-02-27T11:08:41.073Z,8.03
2019-02-27T11:09:54.312Z,8.38
2019-02-27T11:11:08.741Z,7.85
2019-02-27T11:12:22.050Z,8.00
2019-02-27T11:13:35.269Z,8.23
2019-02-27T11:14:48.498Z,6.92
2019-02-27T11:16:03.366Z,7.40
2019-02-27T11:17:16.629Z,7.30
2019-02-27T11:18:29.857Z,7.00
2019-02-27T11:19:46.272Z,6.80
2019-02-27T11:20:59.537Z,7.22
2019-02-27T11:22:12.835Z,7.25
2019-02-27T11:23:26.061Z,7.47
2019-02-27T11:24:39.284Z,6.87
2019-02-27T11:25:56.652Z,6.87
2019-02-27T11:27:07.470Z,6.58
2019-02-27T11:28:21.006Z,7.33
2019-02-27T11:29:42.473Z,8.95
2019-02-27T11:31:01.685Z,10.13
2019-02-27T11:32:14.929Z,7.70
2019-02-27T11:33:32.533Z,6.80
2019-02-27T11:34:45.551Z,8.55
2019-02-27T11:35:59.684Z,8.45
2019-02-27T11:37:13.938Z,8.83
2019-02-27T11:38:27.534Z,8.78
2019-02-27T11:39:40.764Z,9.40
2019-02-27T11:40:53.984Z,8.63
2019-02-27T11:42:07.213Z,9.20
2019-02-27T11:43:20.447Z,9.73
2019-02-27T11:44:33.756Z,9.48
2019-02-27T11:45:46.992Z,9.08
2019-02-27T11:47:00.217Z,9.93
2019-02-27T11:48:13.449Z,8.20
2019-02-27T11:49:26.692Z,9.78
2019-02-27T11:50:39.936Z,9.08
2019-02-27T11:51:53.930Z,8.75
2019-02-27T11:53:07.156Z,8.15
2019-02-27T11:54:20.385Z,8.85
2019-02-27T11:55:33.625Z,8.30
2019-02-27T11:56:46.861Z,8.53
2019-02-27T11:58:04.410Z,8.73
2019-02-27T11:59:15.041Z,8.58
2019-02-27T12:00:32.957Z,8.63
2019-02-27T12:01:47.812Z,8.85
2019-02-27T12:03:01.041Z,8.60
2019-02-27T12:04:14.274Z,9.00
2019-02-27T12:05:33.748Z,8.65
2019-02-27T12:06:43.078Z,8.68
2019-02-27T12:07:56.309Z,9.38
2019-02-27T12:09:09.536Z,8.95
2019-02-27T12:10:30.961Z,9.65
2019-02-27T12:13:01.362Z,9.73
2019-02-27T12:14:14.977Z,9.90
2019-02-27T12:15:28.257Z,8.23
2019-02-27T12:16:41.491Z,8.45
2019-02-27T12:17:59.733Z,7.70
2019-02-27T12:19:09.666Z,8.83
2019-02-27T12:20:23.468Z,7.95
2019-02-27T12:21:36.709Z,9.85
2019-02-27T12:22:51.370Z,10.38
2019-02-27T12:24:05.421Z,8.55
2019-02-27T12:25:20.115Z,8.60
2019-02-27T12:26:34.409Z,8.25
2019-02-27T12:27:50.096Z,9.05
2019-02-27T12:29:03.410Z,8.45
2019-02-27T12:30:21.537Z,9.50
2019-02-27T12:31:36.076Z,8.58
2019-02-27T12:32:49.289Z,9.70
2019-02-27T12:34:03.361Z,9.43
2019-02-27T12:35:18.857Z,8.00
2019-02-27T12:36:32.082Z,9.25
2019-02-27T12:37:45.313Z,8.73
2019-02-27T12:38:58.537Z,9.53
2019-02-27T12:40:14.663Z,9.93
2019-02-27T12:41:30.024Z,9.65
2019-02-27T12:42:43.230Z,10.23
2019-02-27T12:43:56.486Z,9.53
2019-02-27T12:45:15.468Z,9.80
2019-02-27T12:46:28.748Z,10.40
2019-02-27T12:47:42.692Z,9.65
2019-02-27T12:48:55.924Z,9.75
2019-02-27T12:50:11.588Z,9.38
2019-02-27T12:51:25.908Z,9.00
2019-02-27T12:52:39.129Z,8.88
2019-02-27T12:53:54.620Z,9.78
2019-02-27T12:55:07.476Z,10.18
2019-02-27T12:56:20.720Z,9.38
2019-02-27T12:57:33.961Z,9.53
2019-02-27T12:58:47.230Z,9.43
2019-02-27T13:00:00.476Z,10.28
2019-02-27T13:01:16.162Z,9.45
2019-02-27T13:02:35.676Z,9.65
2019-02-27T13:03:43.605Z,9.38
2019-02-27T13:04:57.925Z,9.25
2019-02-27T13:06:11.257Z,9.23
2019-02-27T13:07:24.496Z,8.95
2019-02-27T13:08:37.721Z,9.48
2019-02-27T13:09:50.965Z,9.45
2019-02-27T13:11:07.952Z,9.30
2019-02-27T13:12:20.797Z,9.18
2019-02-27T13:13:34.029Z,9.43
2019-02-27T13:14:47.260Z,8.68
2019-02-27T13:16:00.496Z,8.90
2019-02-27T13:17:13.721Z,8.95
2019-02-27T13:18:31.635Z,8.95
2019-02-27T13:19:41.922Z,11.12
2019-02-27T13:20:55.165Z,12.88
2019-02-27T13:22:08.404Z,10.10
2019-02-27T13:23:21.633Z,9.55
2019-02-27T13:24:34.869Z,9.08
2019-02-27T13:25:50.988Z,9.00
2019-02-27T13:27:09.070Z,10.30
2019-02-27T13:28:20.289Z,10.13
2019-02-27T13:29:33.517Z,17.87
2019-02-27T13:30:46.753Z,16.42
2019-02-27T13:31:59.986Z,9.18
2019-02-27T13:33:13.213Z,9.48
2019-02-27T13:34:26.450Z,9.33
2019-02-27T13:35:40.631Z,10.38
2019-02-27T13:36:53.861Z,8.80
2019-02-27T13:38:07.101Z,8.83
2019-02-27T13:39:20.325Z,9.30
2019-02-27T13:40:35.646Z,8.68
2019-02-27T13:41:48.502Z,8.63
2019-02-27T13:43:01.784Z,8.23
2019-02-27T13:44:15.069Z,7.80
2019-02-27T13:45:28.944Z,7.70
2019-02-27T13:46:42.173Z,9.00
2019-02-27T13:47:55.396Z,9.48
2019-02-27T13:49:08.630Z,8.70
2019-02-27T13:50:23.453Z,9.15
2019-02-27T13:51:40.045Z,8.43
2019-02-27T13:52:51.829Z,8.03
2019-02-27T13:54:05.074Z,9.20
2019-02-27T13:55:19.555Z,8.15
2019-02-27T13:56:32.828Z,9.23
2019-02-27T13:57:46.064Z,8.40
2019-02-27T13:58:59.304Z,9.18
2019-02-27T14:00:21.590Z,8.20
2019-02-27T14:01:36.549Z,8.05
2019-02-27T14:02:52.473Z,8.48
2019-02-27T14:04:05.711Z,8.50
2019-02-27T14:05:18.941Z,8.63
2019-02-27T14:06:32.175Z,8.13
2019-02-27T14:07:45.399Z,8.25
2019-02-27T14:08:58.622Z,7.30
2019-02-27T14:10:17.163Z,7.40
2019-02-27T14:11:29.549Z,7.37
2019-02-27T14:12:42.778Z,7.55
2019-02-27T14:13:56.000Z,7.72
2019-02-27T14:15:11.662Z,7.00
2019-02-27T14:16:24.917Z,8.08
2019-02-27T14:17:41.402Z,7.22
2019-02-27T14:18:54.150Z,8.73
2019-02-27T14:20:11.736Z,7.72
2019-02-27T14:21:24.973Z,7.67
2019-02-27T14:22:40.660Z,8.13
2019-02-27T14:23:53.145Z,8.08
2019-02-27T14:25:09.921Z,8.68
2019-02-27T14:26:23.156Z,8.05
2019-02-27T14:27:36.391Z,7.37
2019-02-27T14:28:52.143Z,6.75
2019-02-27T14:30:10.665Z,8.23
2019-02-27T14:31:23.873Z,7.95
2019-02-27T14:32:37.109Z,7.33
2019-02-27T14:33:51.256Z,7.65
2019-02-27T14:35:05.572Z,7.17
2019-02-27T14:36:19.688Z,7.55
2019-02-27T14:37:32.929Z,7.65
2019-02-27T14:38:46.241Z,6.92
2019-02-27T14:40:03.777Z,6.60
2019-02-27T14:41:15.149Z,6.83
2019-02-27T14:42:28.468Z,7.92
2019-02-27T14:43:41.685Z,6.80
2019-02-27T14:44:54.916Z,7.40
2019-02-27T14:46:11.511Z,8.65
2019-02-27T14:47:25.496Z,7.20
2019-02-27T14:48:38.741Z,7.20
2019-02-27T14:49:51.977Z,8.45
2019-02-27T14:51:07.996Z,7.37
2019-02-27T14:52:20.149Z,7.37
2019-02-27T14:53:34.359Z,7.87
2019-02-27T14:54:47.584Z,6.05
2019-02-27T14:56:10.030Z,6.47
2019-02-27T14:57:23.091Z,6.65
2019-02-27T14:58:36.310Z,6.97
2019-02-27T14:59:49.540Z,6.45
2019-02-27T15:01:02.777Z,5.72
2019-02-27T15:02:22.034Z,6.25
2019-02-27T15:03:33.152Z,6.05
2019-02-27T15:04:46.386Z,6.55
2019-02-27T15:05:59.629Z,7.10
2019-02-27T15:07:12.853Z,6.55
2019-02-27T15:08:26.084Z,5.50
2019-02-27T15:09:47.581Z,6.62
2019-02-27T15:10:54.277Z,6.87
2019-02-27T15:12:07.512Z,7.00
2019-02-27T15:13:20.729Z,6.22
2019-02-27T15:14:33.966Z,7.58
2019-02-27T15:15:47.220Z,7.03
2019-02-27T15:17:00.500Z,7.10
2019-02-27T15:18:14.096Z,6.67
2019-02-27T15:19:30.075Z,7.25
2019-02-27T15:20:42.253Z,6.50
2019-02-27T15:21:55.493Z,6.97
2019-02-27T15:23:08.725Z,6.47
2019-02-27T15:24:21.957Z,6.53
2019-02-27T15:25:42.229Z,7.25
2019-02-27T15:26:51.467Z,6.35
2019-02-27T15:28:04.695Z,6.70
2019-02-27T15:29:17.917Z,6.28
2019-02-27T15:30:32.178Z,6.55
2019-02-27T15:31:45.409Z,6.53
2019-02-27T15:33:03.735Z,6.60
2019-02-27T15:34:14.858Z,6.65
2019-02-27T15:35:28.436Z,7.72
2019-02-27T15:36:41.749Z,13.28
2019-02-27T15:37:54.974Z,9.35
2019-02-27T15:39:09.825Z,6.80
2019-02-27T15:40:28.568Z,6.62
2019-02-27T15:41:39.642Z,6.30
2019-02-27T15:42:54.121Z,5.80
2019-02-27T15:44:08.646Z,6.22
2019-02-27T15:45:23.113Z,7.15
2019-02-27T15:46:36.340Z,7.75
2019-02-27T15:47:49.576Z,6.28
2019-02-27T15:49:02.865Z,6.12
2019-02-27T15:50:32.781Z,6.40
2019-02-27T15:51:46.016Z,6.45
2019-02-27T15:52:59.252Z,6.05
2019-02-27T15:54:12.476Z,6.75
2019-02-27T15:55:25.703Z,6.20
2019-02-27T15:56:41.506Z,7.17
2019-02-27T15:57:54.260Z,5.70
2019-02-27T15:59:08.358Z,5.25
2019-02-27T16:00:23.008Z,6.83
2019-02-27T16:01:36.237Z,5.78
2019-02-27T16:02:49.453Z,5.83
2019-02-27T16:04:02.684Z,5.92
2019-02-27T16:05:15.989Z,6.08
2019-02-27T16:06:29.518Z,5.83
2019-02-27T16:07:48.535Z,6.20
2019-02-27T16:08:58.380Z,5.85
2019-02-27T16:10:17.126Z,5.65
2019-02-27T16:11:30.336Z,6.65
2019-02-27T16:12:43.556Z,5.87
2019-02-27T16:13:56.796Z,7.65
2019-02-27T16:15:16.498Z,7.58
2019-02-27T16:16:27.025Z,7.17
2019-02-27T16:17:40.259Z,6.78
2019-02-27T16:18:53.473Z,6.62
2019-02-27T16:20:09.848Z,6.67
2019-02-27T16:21:23.613Z,5.45
2019-02-27T16:22:37.544Z,7.03
2019-02-27T16:23:50.787Z,7.40
2019-02-27T16:25:06.574Z,8.30
2019-02-27T16:26:19.824Z,6.72
2019-02-27T16:27:35.423Z,6.17
2019-02-27T16:28:48.999Z,5.55
2019-02-27T16:30:03.832Z,5.28
2019-02-27T16:31:17.065Z,7.12
2019-02-27T16:32:32.968Z,5.90
2019-02-27T16:33:46.252Z,8.55
2019-02-27T16:34:59.488Z,8.55
2019-02-27T16:36:12.919Z,8.73
2019-02-27T16:37:28.881Z,7.22
2019-02-27T16:38:42.353Z,5.97
2019-02-27T16:39:55.577Z,5.33
2019-02-27T16:41:09.764Z,5.03
2019-02-27T16:42:22.989Z,4.60
2019-02-27T16:43:36.213Z,5.05
2019-02-27T16:44:50.445Z,6.17
2019-02-27T16:46:07.669Z,12.47
2019-02-27T16:47:19.957Z,10.25
2019-02-27T16:48:34.597Z,9.10
2019-02-27T16:49:51.258Z,8.05